createdAt,value
2017-06-14T00:00:31.147Z,0
2017-06-14T00:01:40.475Z,0
2017-06-14T00:02:49.784Z,0
2017-06-14T00:04:00.003Z,0
2017-06-14T00:05:09.647Z,0
2017-06-14T00:06:19.866Z,0
2017-06-14T00:07:29.511Z,0
2017-06-14T00:08:39.599Z,0
2017-06-14T00:09:50.199Z,0
2017-06-14T00:11:00.130Z,0
2017-06-14T00:12:10.070Z,0
2017-06-14T00:13:20.030Z,0
2017-06-14T00:14:29.962Z,0
2017-06-14T00:15:40.230Z,0
2017-06-14T00:16:50.180Z,0
2017-06-14T00:17:59.804Z,0
2017-06-14T00:19:09.742Z,0
2017-06-14T00:20:19.048Z,0
2017-06-14T00:21:28.675Z,0
2017-06-14T00:22:38.908Z,0
2017-06-14T00:23:48.226Z,0
2017-06-14T00:24:57.857Z,0
2017-06-14T00:26:07.621Z,0
2017-06-14T00:27:17.883Z,0
2017-06-14T00:28:27.821Z,0
2017-06-14T00:29:37.434Z,0
2017-06-14T00:30:47.087Z,0
2017-06-14T00:31:57.483Z,0
2017-06-14T00:33:07.394Z,0
2017-06-14T00:34:17.002Z,0
2017-06-14T00:35:26.616Z,0
2017-06-14T00:36:36.231Z,0
2017-06-14T00:37:45.319Z,0
2017-06-14T00:38:55.242Z,0
2017-06-14T00:40:05.165Z,0
2017-06-14T00:41:14.780Z,0
2017-06-14T00:42:24.706Z,0
2017-06-14T00:43:34.770Z,0
2017-06-14T00:44:44.977Z,0
2017-06-14T00:45:54.597Z,0
2017-06-14T00:47:04.535Z,0
2017-06-14T00:48:14.460Z,0
2017-06-14T00:49:24.692Z,0
2017-06-14T00:50:34.936Z,0
2017-06-14T00:51:44.849Z,0
2017-06-14T00:52:54.457Z,0
2017-06-14T00:54:03.760Z,0
2017-06-14T00:55:13.486Z,0
2017-06-14T00:56:23.735Z,0
2017-06-14T00:57:33.030Z,0
2017-06-14T00:58:43.273Z,0
2017-06-14T00:59:52.593Z,0
2017-06-14T01:01:02.981Z,0
2017-06-14T01:02:12.912Z,0
2017-06-14T01:03:23.144Z,0
2017-06-14T01:04:33.389Z,0
2017-06-14T01:05:43.317Z,0
2017-06-14T01:06:53.401Z,0
2017-06-14T01:08:02.679Z,0
2017-06-14T01:09:11.997Z,0
2017-06-14T01:10:21.652Z,0
2017-06-14T01:11:30.966Z,0
2017-06-14T01:12:41.202Z,0
2017-06-14T01:13:50.841Z,0
2017-06-14T01:15:00.440Z,0
2017-06-14T01:16:10.049Z,0
2017-06-14T01:17:19.982Z,0
2017-06-14T01:18:30.529Z,0
2017-06-14T01:19:40.494Z,0
2017-06-14T01:20:50.745Z,0
2017-06-14T01:22:00.692Z,0
2017-06-14T01:23:10.624Z,0
2017-06-14T01:24:21.222Z,0
2017-06-14T01:25:31.462Z,0
2017-06-14T01:26:41.081Z,0
2017-06-14T01:27:51.015Z,0
2017-06-14T01:29:01.266Z,0
2017-06-14T01:30:11.534Z,0
2017-06-14T01:31:21.131Z,0
2017-06-14T01:32:31.389Z,0
2017-06-14T01:33:40.704Z,0
2017-06-14T01:34:50.344Z,0
2017-06-14T01:36:00.448Z,0
2017-06-14T01:37:10.064Z,0
2017-06-14T01:38:19.387Z,0
2017-06-14T01:39:29.030Z,0
2017-06-14T01:40:39.247Z,0
2017-06-14T01:41:49.325Z,0
2017-06-14T01:42:58.655Z,0
2017-06-14T01:44:08.588Z,0
2017-06-14T01:45:18.488Z,0
2017-06-14T01:46:28.399Z,0
2017-06-14T01:47:38.328Z,0
2017-06-14T01:48:48.241Z,0
2017-06-14T01:49:58.474Z,0
2017-06-14T01:51:08.422Z,0
2017-06-14T01:52:18.350Z,0
2017-06-14T01:53:28.330Z,0
2017-06-14T01:54:38.566Z,0
2017-06-14T01:55:48.203Z,0
2017-06-14T01:56:58.127Z,0
2017-06-14T01:58:08.088Z,0
2017-06-14T01:59:17.867Z,0
2017-06-14T02:00:27.525Z,0
2017-06-14T02:01:37.830Z,0
2017-06-14T02:02:47.186Z,0
2017-06-14T02:03:57.438Z,0
2017-06-14T02:05:07.725Z,0
2017-06-14T02:06:17.974Z,0
2017-06-14T02:07:27.583Z,0
2017-06-14T02:08:37.827Z,0
2017-06-14T02:09:48.069Z,0
2017-06-14T02:10:58.476Z,0
2017-06-14T02:12:08.414Z,0
2017-06-14T02:13:18.660Z,0
2017-06-14T02:14:28.287Z,0
2017-06-14T02:15:38.229Z,0
2017-06-14T02:16:47.846Z,0
2017-06-14T02:17:58.096Z,0
2017-06-14T02:19:07.695Z,0
2017-06-14T02:20:17.690Z,0
2017-06-14T02:21:27.619Z,0
2017-06-14T02:22:37.519Z,0
2017-06-14T02:23:47.822Z,0
2017-06-14T02:24:57.132Z,0
2017-06-14T02:26:07.049Z,0
2017-06-14T02:27:16.288Z,0
2017-06-14T02:28:25.605Z,0
2017-06-14T02:29:35.845Z,0
2017-06-14T02:30:45.783Z,0
2017-06-14T02:31:55.712Z,0
2017-06-14T02:33:05.642Z,0
2017-06-14T02:34:15.583Z,0
2017-06-14T02:35:25.798Z,0
2017-06-14T02:36:35.394Z,0
2017-06-14T02:37:45.634Z,0
2017-06-14T02:38:55.694Z,0
2017-06-14T02:40:05.611Z,0
2017-06-14T02:41:15.822Z,0
2017-06-14T02:42:25.451Z,0
2017-06-14T02:43:35.373Z,0
2017-06-14T02:44:45.373Z,0
2017-06-14T02:45:55.294Z,0
2017-06-14T02:47:05.517Z,0
2017-06-14T02:48:15.433Z,0
2017-06-14T02:49:25.659Z,0
2017-06-14T02:50:35.927Z,0
2017-06-14T02:51:46.147Z,0
2017-06-14T02:52:55.433Z,0
2017-06-14T02:54:05.686Z,0
2017-06-14T02:55:15.629Z,0
2017-06-14T02:56:25.712Z,0
2017-06-14T02:57:35.652Z,0
2017-06-14T02:58:44.971Z,0
2017-06-14T02:59:54.595Z,0
2017-06-14T03:01:04.527Z,0
2017-06-14T03:02:14.607Z,0
2017-06-14T03:03:24.855Z,0
2017-06-14T03:04:34.153Z,0
2017-06-14T03:05:44.422Z,0
2017-06-14T03:06:54.041Z,0
2017-06-14T03:08:03.801Z,0
2017-06-14T03:09:14.044Z,0
2017-06-14T03:10:23.958Z,0
2017-06-14T03:11:34.202Z,0
2017-06-14T03:12:43.814Z,0
2017-06-14T03:13:53.890Z,0
2017-06-14T03:15:03.186Z,0
2017-06-14T03:16:12.792Z,0
2017-06-14T03:17:22.690Z,0
2017-06-14T03:18:32.624Z,0
2017-06-14T03:19:42.338Z,0
2017-06-14T03:20:51.966Z,0
2017-06-14T03:22:01.908Z,0
2017-06-14T03:23:11.836Z,0
2017-06-14T03:24:21.455Z,0
2017-06-14T03:25:31.839Z,0
2017-06-14T03:26:41.461Z,0
2017-06-14T03:27:51.388Z,0
2017-06-14T03:29:01.651Z,0
2017-06-14T03:30:11.589Z,0
2017-06-14T03:31:21.216Z,0
2017-06-14T03:32:30.842Z,0
2017-06-14T03:33:41.083Z,0
2017-06-14T03:34:50.728Z,0
2017-06-14T03:36:00.669Z,0
2017-06-14T03:37:10.768Z,0
2017-06-14T03:38:20.698Z,0
2017-06-14T03:39:30.637Z,0
2017-06-14T03:40:40.564Z,0
2017-06-14T03:41:50.502Z,0
2017-06-14T03:43:00.743Z,0
2017-06-14T03:44:10.994Z,0
2017-06-14T03:45:20.320Z,0
2017-06-14T03:46:30.562Z,0
2017-06-14T03:47:40.787Z,0
2017-06-14T03:48:50.698Z,0
2017-06-14T03:50:00.014Z,0
2017-06-14T03:51:10.255Z,0
2017-06-14T03:52:19.882Z,0
2017-06-14T03:53:30.104Z,0
2017-06-14T03:54:40.377Z,0
2017-06-14T03:55:50.399Z,0
2017-06-14T03:56:59.712Z,0
2017-06-14T03:58:09.641Z,0
2017-06-14T03:59:19.266Z,0
2017-06-14T04:00:27.983Z,0
2017-06-14T04:01:37.602Z,0
2017-06-14T04:02:47.837Z,0
2017-06-14T04:03:57.763Z,0
2017-06-14T04:05:06.780Z,0
2017-06-14T04:06:16.706Z,0
2017-06-14T04:07:26.944Z,0
2017-06-14T04:08:37.202Z,5
2017-06-14T04:09:47.452Z,5
2017-06-14T04:10:56.755Z,5
2017-06-14T04:12:06.734Z,5
2017-06-14T04:13:16.338Z,5
2017-06-14T04:14:26.280Z,5
2017-06-14T04:15:35.596Z,5
2017-06-14T04:16:45.525Z,5
2017-06-14T04:17:55.543Z,5
2017-06-14T04:19:05.771Z,5
2017-06-14T04:20:15.075Z,5
2017-06-14T04:21:24.395Z,5
2017-06-14T04:22:34.637Z,5
2017-06-14T04:23:45.030Z,5
2017-06-14T04:24:54.967Z,5
2017-06-14T04:26:04.575Z,5
2017-06-14T04:27:14.823Z,5
2017-06-14T04:28:24.455Z,5
2017-06-14T04:29:34.540Z,5
2017-06-14T04:30:44.456Z,5
2017-06-14T04:31:54.674Z,5
2017-06-14T04:33:04.611Z,5
2017-06-14T04:34:14.530Z,10
2017-06-14T04:35:23.982Z,10
2017-06-14T04:36:33.590Z,10
2017-06-14T04:37:43.507Z,10
2017-06-14T04:38:53.426Z,10
2017-06-14T04:40:03.666Z,10
2017-06-14T04:41:13.285Z,10
2017-06-14T04:42:23.225Z,10
2017-06-14T04:43:33.162Z,10
2017-06-14T04:44:43.095Z,10
2017-06-14T04:45:53.341Z,10
2017-06-14T04:47:02.966Z,10
2017-06-14T04:48:12.607Z,10
2017-06-14T04:49:22.535Z,10
2017-06-14T04:50:32.763Z,10
2017-06-14T04:51:42.992Z,10
2017-06-14T04:52:52.719Z,10
2017-06-14T04:54:02.339Z,10
2017-06-14T04:55:11.669Z,10
2017-06-14T04:56:21.926Z,10
2017-06-14T04:57:31.876Z,10
2017-06-14T04:58:41.254Z,10
2017-06-14T04:59:51.492Z,10
2017-06-14T05:01:01.426Z,10
2017-06-14T05:02:15.929Z,10
2017-06-14T05:03:25.862Z,10
2017-06-14T05:04:36.251Z,10
2017-06-14T05:05:45.892Z,10
2017-06-14T05:06:55.833Z,15
2017-06-14T05:08:05.768Z,15
2017-06-14T05:09:15.373Z,15
2017-06-14T05:10:25.451Z,15
2017-06-14T05:11:35.386Z,15
2017-06-14T05:12:45.328Z,20
2017-06-14T05:13:55.619Z,20
2017-06-14T05:15:05.241Z,20
2017-06-14T05:16:15.242Z,25
2017-06-14T05:17:25.210Z,25
2017-06-14T05:18:34.845Z,25
2017-06-14T05:19:44.167Z,30
2017-06-14T05:20:54.120Z,40
2017-06-14T05:22:03.867Z,40
2017-06-14T05:23:13.818Z,40
2017-06-14T05:24:23.783Z,40
2017-06-14T05:25:33.417Z,40
2017-06-14T05:26:43.379Z,40
2017-06-14T05:27:53.471Z,45
2017-06-14T05:29:03.412Z,45
2017-06-14T05:30:13.372Z,45
2017-06-14T05:31:23.330Z,45
2017-06-14T05:32:33.585Z,45
2017-06-14T05:33:43.656Z,45
2017-06-14T05:34:53.603Z,45
2017-06-14T05:36:03.543Z,45
2017-06-14T05:37:12.878Z,45
2017-06-14T05:38:23.116Z,45
2017-06-14T05:39:33.054Z,45
2017-06-14T05:40:42.691Z,45
2017-06-14T05:41:52.640Z,45
2017-06-14T05:43:02.859Z,45
2017-06-14T05:44:13.103Z,45
2017-06-14T05:45:23.034Z,45
2017-06-14T05:46:32.951Z,50
2017-06-14T05:47:42.572Z,50
2017-06-14T05:48:52.543Z,50
2017-06-14T05:50:02.784Z,50
2017-06-14T05:51:12.586Z,50
2017-06-14T05:52:22.493Z,50
2017-06-14T05:53:31.808Z,50
2017-06-14T05:54:42.055Z,50
2017-06-14T05:55:52.321Z,50
2017-06-14T05:57:02.108Z,50
2017-06-14T05:58:12.377Z,50
2017-06-14T05:59:22.634Z,50
2017-06-14T06:00:33.780Z,50
2017-06-14T06:01:43.537Z,55
2017-06-14T06:02:54.172Z,55
2017-06-14T06:04:05.425Z,55
2017-06-14T06:05:15.634Z,55
2017-06-14T06:06:25.984Z,55
2017-06-14T06:07:36.212Z,55
2017-06-14T06:08:44.921Z,55
2017-06-14T06:09:55.152Z,55
2017-06-14T06:11:05.074Z,55
2017-06-14T06:12:14.696Z,55
2017-06-14T06:13:24.308Z,55
2017-06-14T06:14:34.018Z,60
2017-06-14T06:15:43.952Z,60
2017-06-14T06:16:54.185Z,60
2017-06-14T06:18:04.866Z,60
2017-06-14T06:19:15.370Z,60
2017-06-14T06:20:26.412Z,60
2017-06-14T06:21:36.466Z,60
2017-06-14T06:22:46.376Z,60
2017-06-14T06:23:56.675Z,60
2017-06-14T06:25:06.638Z,60
2017-06-14T06:26:17.614Z,60
2017-06-14T06:27:27.926Z,60
2017-06-14T06:28:37.724Z,60
2017-06-14T06:29:48.256Z,60
2017-06-14T06:30:57.881Z,60
2017-06-14T06:32:07.806Z,60
2017-06-14T06:33:17.450Z,60
2017-06-14T06:34:27.377Z,65
2017-06-14T06:35:37.295Z,65
2017-06-14T06:36:47.534Z,65
2017-06-14T06:37:57.550Z,65
2017-06-14T06:39:07.484Z,65
2017-06-14T06:40:17.410Z,65
2017-06-14T06:41:27.650Z,70
2017-06-14T06:42:37.590Z,70
2017-06-14T06:43:47.524Z,70
2017-06-14T06:44:57.445Z,70
2017-06-14T06:46:07.377Z,70
2017-06-14T06:47:17.596Z,75
2017-06-14T06:48:27.817Z,75
2017-06-14T06:49:37.893Z,75
2017-06-14T06:50:47.802Z,75
2017-06-14T06:51:57.722Z,75
2017-06-14T06:53:07.639Z,70
2017-06-14T06:54:17.888Z,70
2017-06-14T06:55:27.818Z,55
2017-06-14T06:56:37.136Z,55
2017-06-14T06:57:47.382Z,70
2017-06-14T06:58:57.620Z,80
2017-06-14T07:00:07.234Z,85
2017-06-14T07:01:17.251Z,85
2017-06-14T07:02:27.495Z,85
2017-06-14T07:03:37.128Z,95
2017-06-14T07:04:47.042Z,175
2017-06-14T07:05:56.647Z,180
2017-06-14T07:07:06.425Z,160
2017-06-14T07:08:16.040Z,130
2017-06-14T07:09:25.647Z,100
2017-06-14T07:10:35.879Z,95
2017-06-14T07:11:45.806Z,95
2017-06-14T07:12:55.150Z,95
2017-06-14T07:14:05.737Z,95
2017-06-14T07:15:15.327Z,100
2017-06-14T07:16:24.941Z,100
2017-06-14T07:17:34.856Z,105
2017-06-14T07:18:45.130Z,120
2017-06-14T07:19:55.356Z,250
2017-06-14T07:21:04.653Z,590
2017-06-14T07:22:14.571Z,715
2017-06-14T07:23:24.530Z,570
2017-06-14T07:24:34.617Z,205
2017-06-14T07:25:44.533Z,140
2017-06-14T07:26:54.446Z,125
2017-06-14T07:28:04.673Z,120
2017-06-14T07:29:14.584Z,120
2017-06-14T07:30:24.332Z,125
2017-06-14T07:31:33.323Z,120
2017-06-14T07:32:42.612Z,120
2017-06-14T07:33:52.223Z,120
2017-06-14T07:35:02.149Z,120
2017-06-14T07:36:11.765Z,125
2017-06-14T07:37:21.986Z,125
2017-06-14T07:38:32.212Z,130
2017-06-14T07:39:42.450Z,130
2017-06-14T07:40:52.687Z,135
2017-06-14T07:42:03.076Z,140
2017-06-14T07:43:12.686Z,145
2017-06-14T07:44:22.594Z,150
2017-06-14T07:45:32.190Z,155
2017-06-14T07:46:41.170Z,160
2017-06-14T07:47:51.265Z,165
2017-06-14T07:49:01.488Z,175
2017-06-14T07:50:11.095Z,190
2017-06-14T07:51:20.690Z,215
2017-06-14T07:52:30.298Z,365
2017-06-14T07:53:40.369Z,830
2017-06-14T07:54:50.590Z,1095
2017-06-14T07:56:00.822Z,1050
2017-06-14T07:57:11.065Z,1055
2017-06-14T07:58:20.371Z,1165
2017-06-14T07:59:30.926Z,1110
2017-06-14T08:00:41.171Z,1025
2017-06-14T08:01:50.806Z,1080
2017-06-14T08:03:00.462Z,1190
2017-06-14T08:04:09.780Z,1150
2017-06-14T08:05:20.161Z,1035
2017-06-14T08:06:30.088Z,1125
2017-06-14T08:07:39.997Z,1165
2017-06-14T08:08:50.582Z,1170
2017-06-14T08:10:00.485Z,1150
2017-06-14T08:11:10.853Z,1210
2017-06-14T08:12:20.765Z,1205
2017-06-14T08:14:02.475Z,1165
2017-06-14T08:15:12.392Z,1235
2017-06-14T08:16:22.164Z,1130
2017-06-14T08:17:31.469Z,1125
2017-06-14T08:18:41.078Z,1070
2017-06-14T08:19:50.983Z,1195
2017-06-14T08:21:00.886Z,1140
2017-06-14T08:22:11.259Z,1120
2017-06-14T08:23:20.860Z,1170
2017-06-14T08:24:30.470Z,1285
2017-06-14T08:25:40.690Z,1170
2017-06-14T08:26:51.305Z,1165
2017-06-14T08:28:01.210Z,1210
2017-06-14T08:29:11.502Z,1280
2017-06-14T08:30:21.433Z,1160
2017-06-14T08:31:31.659Z,1215
2017-06-14T08:32:41.606Z,1210
2017-06-14T08:33:50.997Z,1150
2017-06-14T08:35:00.901Z,1070
2017-06-14T08:36:11.120Z,1240
2017-06-14T08:37:21.034Z,1230
2017-06-14T08:38:30.945Z,1165
2017-06-14T08:39:40.606Z,1230
2017-06-14T08:40:50.510Z,1225
2017-06-14T08:42:00.122Z,1145
2017-06-14T08:43:09.433Z,1250
2017-06-14T08:44:19.037Z,1300
2017-06-14T08:45:28.502Z,1100
2017-06-14T08:46:38.420Z,555
2017-06-14T08:47:47.710Z,130
2017-06-14T08:48:57.940Z,90
2017-06-14T08:50:08.151Z,75
2017-06-14T08:51:17.766Z,70
2017-06-14T08:52:27.688Z,65
2017-06-14T08:53:37.288Z,60
2017-06-14T08:54:47.510Z,55
2017-06-14T08:55:57.155Z,50
2017-06-14T08:57:07.119Z,50
2017-06-14T08:58:17.398Z,50
2017-06-14T08:59:27.002Z,50
2017-06-14T09:00:36.602Z,50
2017-06-14T09:01:46.534Z,55
2017-06-14T09:02:56.607Z,50
2017-06-14T09:04:06.521Z,50
2017-06-14T09:05:15.814Z,45
2017-06-14T09:06:25.122Z,45
2017-06-14T09:07:34.728Z,45
2017-06-14T09:08:45.054Z,35
2017-06-14T09:09:54.709Z,35
2017-06-14T09:11:04.333Z,35
2017-06-14T09:12:13.945Z,30
2017-06-14T09:13:24.167Z,30
2017-06-14T09:14:34.236Z,30
2017-06-14T09:15:44.467Z,30
2017-06-14T09:16:54.978Z,30
2017-06-14T09:18:05.315Z,30
2017-06-14T09:19:15.975Z,30
2017-06-14T09:20:26.291Z,30
2017-06-14T09:21:36.517Z,30
2017-06-14T09:22:46.748Z,30
2017-06-14T09:23:56.058Z,30
2017-06-14T09:25:05.974Z,30
2017-06-14T09:26:16.348Z,30
2017-06-14T09:27:26.565Z,30
2017-06-14T09:28:36.780Z,30
2017-06-14T09:29:46.090Z,30
2017-06-14T09:30:56.342Z,30
2017-06-14T09:32:06.071Z,30
2017-06-14T09:33:15.990Z,30
2017-06-14T09:34:25.924Z,30
2017-06-14T09:35:35.827Z,30
2017-06-14T09:36:46.053Z,35
2017-06-14T09:37:55.816Z,30
2017-06-14T09:39:05.736Z,30
2017-06-14T09:40:15.359Z,30
2017-06-14T09:41:25.292Z,30
2017-06-14T09:42:35.220Z,30
2017-06-14T09:43:44.982Z,30
2017-06-14T09:44:54.903Z,30
2017-06-14T09:46:04.829Z,25
2017-06-14T09:47:15.052Z,25
2017-06-14T09:48:24.974Z,25
2017-06-14T09:49:34.735Z,25
2017-06-14T09:50:44.349Z,25
2017-06-14T09:51:54.269Z,25
2017-06-14T09:53:04.223Z,25
2017-06-14T09:54:14.133Z,25
2017-06-14T09:55:24.195Z,25
2017-06-14T09:56:34.125Z,25
2017-06-14T09:57:44.359Z,30
2017-06-14T09:58:53.992Z,30
2017-06-14T10:00:03.594Z,30
2017-06-14T10:01:13.249Z,25
2017-06-14T10:02:23.159Z,25
2017-06-14T10:03:33.074Z,25
2017-06-14T10:04:43.292Z,25
2017-06-14T10:05:53.206Z,30
2017-06-14T10:07:02.503Z,30
2017-06-14T10:08:11.810Z,25
2017-06-14T10:09:21.734Z,25
2017-06-14T10:10:31.642Z,25
2017-06-14T10:11:41.862Z,20
2017-06-14T10:12:52.430Z,20
2017-06-14T10:14:02.026Z,20
2017-06-14T10:15:12.362Z,20
2017-06-14T10:16:22.277Z,20
2017-06-14T10:17:31.874Z,20
2017-06-14T10:18:42.136Z,20
2017-06-14T10:19:51.742Z,20
2017-06-14T10:21:01.654Z,20
2017-06-14T10:22:11.581Z,25
2017-06-14T10:23:20.892Z,25
2017-06-14T10:24:30.811Z,25
2017-06-14T10:25:41.043Z,25
2017-06-14T10:26:50.342Z,25
2017-06-14T10:28:00.574Z,25
2017-06-14T10:29:10.493Z,25
2017-06-14T10:30:19.899Z,25
2017-06-14T10:31:29.530Z,25
2017-06-14T10:32:39.744Z,25
2017-06-14T10:33:49.659Z,25
2017-06-14T10:34:59.888Z,25
2017-06-14T10:36:09.803Z,25
2017-06-14T10:37:19.736Z,25
2017-06-14T10:38:29.962Z,25
2017-06-14T10:39:39.573Z,25
2017-06-14T10:40:49.488Z,25
2017-06-14T10:41:59.455Z,25
2017-06-14T10:43:09.368Z,20
2017-06-14T10:44:19.009Z,20
2017-06-14T10:45:28.925Z,20
2017-06-14T10:46:39.137Z,25
2017-06-14T10:47:48.904Z,20
2017-06-14T10:48:58.850Z,20
2017-06-14T10:50:08.450Z,20
2017-06-14T10:51:18.706Z,20
2017-06-14T10:52:28.927Z,20
2017-06-14T10:53:38.846Z,20
2017-06-14T10:54:48.785Z,20
2017-06-14T10:55:58.087Z,20
2017-06-14T10:57:07.702Z,20
2017-06-14T10:58:17.632Z,20
2017-06-14T10:59:27.861Z,20
2017-06-14T11:00:38.097Z,20
2017-06-14T11:01:48.325Z,20
2017-06-14T11:02:57.931Z,20
2017-06-14T11:04:08.165Z,20
2017-06-14T11:05:18.099Z,20
2017-06-14T11:06:27.702Z,20
2017-06-14T11:07:37.939Z,20
2017-06-14T11:08:47.547Z,20
2017-06-14T11:09:57.467Z,15
2017-06-14T11:11:07.603Z,15
2017-06-14T11:12:17.537Z,15
2017-06-14T11:13:26.839Z,15
2017-06-14T11:14:37.057Z,15
2017-06-14T11:15:46.678Z,15
2017-06-14T11:16:56.940Z,15
2017-06-14T11:18:06.551Z,15
2017-06-14T11:19:16.492Z,15
2017-06-14T11:20:26.104Z,15
2017-06-14T11:21:35.427Z,15
2017-06-14T11:22:45.496Z,15
2017-06-14T11:23:55.410Z,15
2017-06-14T11:25:04.404Z,15
2017-06-14T11:26:14.320Z,15
2017-06-14T11:27:23.949Z,15
2017-06-14T11:28:34.268Z,15
2017-06-14T11:29:43.262Z,15
2017-06-14T11:30:53.202Z,15
2017-06-14T11:32:03.465Z,15
2017-06-14T11:33:13.078Z,15
2017-06-14T11:34:22.783Z,15
2017-06-14T11:35:32.699Z,15
2017-06-14T11:36:42.311Z,15
2017-06-14T11:37:52.281Z,15
2017-06-14T11:39:02.410Z,15
2017-06-14T11:40:13.406Z,15
2017-06-14T11:41:23.338Z,15
2017-06-14T11:42:33.929Z,15
2017-06-14T11:43:44.161Z,15
2017-06-14T11:44:54.769Z,15
2017-06-14T11:46:04.377Z,15
2017-06-14T11:47:14.626Z,15
2017-06-14T11:48:24.849Z,15
2017-06-14T11:49:34.490Z,15
2017-06-14T11:50:44.457Z,15
2017-06-14T11:51:53.851Z,15
2017-06-14T11:53:04.065Z,15
2017-06-14T11:54:13.988Z,15
2017-06-14T11:55:23.597Z,15
2017-06-14T11:56:33.820Z,15
2017-06-14T11:57:43.121Z,10
2017-06-14T11:58:53.358Z,10
2017-06-14T12:00:02.651Z,10
2017-06-14T12:01:12.572Z,10
2017-06-14T12:02:21.868Z,10
2017-06-14T12:03:32.433Z,10
2017-06-14T12:04:42.048Z,10
2017-06-14T12:05:51.976Z,10
2017-06-14T12:07:01.909Z,10
2017-06-14T12:08:10.921Z,10
2017-06-14T12:09:20.543Z,10
2017-06-14T12:10:30.163Z,10
2017-06-14T12:11:40.083Z,10
2017-06-14T12:12:50.008Z,10
2017-06-14T12:13:59.930Z,10
2017-06-14T12:15:09.709Z,10
2017-06-14T12:16:19.309Z,10
2017-06-14T12:17:29.553Z,10
2017-06-14T12:18:39.816Z,10
2017-06-14T12:19:49.475Z,10
2017-06-14T12:20:58.599Z,10
2017-06-14T12:22:08.849Z,10
2017-06-14T12:23:18.485Z,10
2017-06-14T12:24:28.718Z,10
2017-06-14T12:25:38.946Z,10
2017-06-14T12:26:49.308Z,10
2017-06-14T12:27:59.532Z,10
2017-06-14T12:29:08.850Z,10
2017-06-14T12:30:18.479Z,10
2017-06-14T12:31:28.389Z,10
2017-06-14T12:32:38.449Z,10
2017-06-14T12:33:47.754Z,10
2017-06-14T12:34:57.687Z,10
2017-06-14T12:36:07.612Z,10
2017-06-14T12:37:17.838Z,10
2017-06-14T12:38:27.608Z,10
2017-06-14T12:39:37.210Z,10
2017-06-14T12:40:46.502Z,10
2017-06-14T12:41:56.409Z,10
2017-06-14T12:43:06.626Z,10
2017-06-14T12:44:15.918Z,10
2017-06-14T12:45:25.516Z,10
2017-06-14T12:46:35.738Z,10
2017-06-14T12:47:45.358Z,10
2017-06-14T12:48:55.564Z,10
2017-06-14T12:50:05.816Z,10
2017-06-14T12:51:15.731Z,10
2017-06-14T12:52:25.653Z,10
2017-06-14T12:53:35.275Z,10
2017-06-14T12:54:44.882Z,10
2017-06-14T12:55:54.636Z,10
2017-06-14T12:57:04.236Z,10
2017-06-14T12:58:13.840Z,10
2017-06-14T12:59:23.765Z,10
2017-06-14T13:00:33.365Z,10
2017-06-14T13:01:42.503Z,10
2017-06-14T13:02:52.411Z,10
2017-06-14T13:04:02.338Z,10
2017-06-14T13:05:12.254Z,10
2017-06-14T13:06:22.181Z,10
2017-06-14T13:07:31.794Z,10
2017-06-14T13:08:41.392Z,10
2017-06-14T13:09:51.308Z,10
2017-06-14T13:11:01.232Z,10
2017-06-14T13:12:11.506Z,10
2017-06-14T13:13:21.158Z,10
2017-06-14T13:14:30.817Z,10
2017-06-14T13:15:40.744Z,10
2017-06-14T13:16:50.664Z,10
2017-06-14T13:18:00.276Z,10
2017-06-14T13:19:10.563Z,10
2017-06-14T13:20:20.481Z,10
2017-06-14T13:21:29.774Z,10
2017-06-14T13:22:39.996Z,10
2017-06-14T13:23:49.913Z,10
2017-06-14T13:25:00.135Z,10
2017-06-14T13:26:09.745Z,10
2017-06-14T13:27:19.346Z,10
2017-06-14T13:28:29.258Z,10
2017-06-14T13:29:39.166Z,10
2017-06-14T13:30:49.593Z,10
2017-06-14T13:31:59.512Z,10
2017-06-14T13:33:09.739Z,10
2017-06-14T13:34:19.658Z,10
2017-06-14T13:35:29.271Z,10
2017-06-14T13:36:39.327Z,10
2017-06-14T13:37:48.931Z,10
2017-06-14T13:38:58.539Z,10
2017-06-14T13:40:08.147Z,10
2017-06-14T13:41:18.062Z,10
2017-06-14T13:42:28.339Z,10
2017-06-14T13:43:37.946Z,10
2017-06-14T13:44:47.857Z,10
2017-06-14T13:45:57.463Z,10
2017-06-14T13:47:07.702Z,10
2017-06-14T13:48:17.779Z,10
2017-06-14T13:49:27.709Z,10
2017-06-14T13:50:37.623Z,10
2017-06-14T13:51:47.547Z,10
2017-06-14T13:52:57.758Z,10
2017-06-14T13:54:06.889Z,10
2017-06-14T13:55:16.797Z,10
2017-06-14T13:56:27.014Z,10
2017-06-14T13:57:36.620Z,10
2017-06-14T13:58:46.599Z,10
2017-06-14T13:59:56.686Z,10
2017-06-14T14:01:06.591Z,10
2017-06-14T14:02:16.187Z,10
2017-06-14T14:03:26.404Z,10
2017-06-14T14:04:36.312Z,10
2017-06-14T14:05:45.767Z,10
2017-06-14T14:06:55.403Z,10
2017-06-14T14:08:05.309Z,10
2017-06-14T14:09:15.244Z,10
2017-06-14T14:10:25.162Z,10
2017-06-14T14:11:35.172Z,10
2017-06-14T14:12:44.772Z,10
2017-06-14T14:13:54.702Z,10
2017-06-14T14:15:04.631Z,10
2017-06-14T14:16:13.625Z,10
2017-06-14T14:17:24.002Z,10
2017-06-14T14:18:33.632Z,10
2017-06-14T14:19:43.540Z,10
2017-06-14T14:20:53.757Z,10
2017-06-14T14:22:03.976Z,10
2017-06-14T14:23:14.298Z,10
2017-06-14T14:24:24.225Z,10
2017-06-14T14:25:34.148Z,10
2017-06-14T14:26:44.368Z,10
2017-06-14T14:27:54.605Z,10
2017-06-14T14:29:04.672Z,10
2017-06-14T14:30:14.277Z,10
2017-06-14T14:31:23.886Z,10
2017-06-14T14:32:33.802Z,10
2017-06-14T14:33:44.038Z,10
2017-06-14T14:34:53.515Z,10
2017-06-14T14:36:03.753Z,10
2017-06-14T14:37:13.672Z,10
2017-06-14T14:38:23.588Z,10
2017-06-14T14:39:33.850Z,10
2017-06-14T14:40:43.564Z,10
2017-06-14T14:41:53.781Z,10
2017-06-14T14:43:04.029Z,10
2017-06-14T14:44:13.931Z,10
2017-06-14T14:45:24.148Z,10
2017-06-14T14:46:34.091Z,10
2017-06-14T14:47:44.006Z,10
2017-06-14T14:48:53.919Z,10
2017-06-14T14:50:03.826Z,10
2017-06-14T14:51:13.738Z,10
2017-06-14T14:52:23.207Z,10
2017-06-14T14:53:32.826Z,10
2017-06-14T14:54:42.443Z,10
2017-06-14T14:55:52.356Z,10
2017-06-14T14:57:02.573Z,10
2017-06-14T14:58:12.794Z,10
2017-06-14T14:59:23.010Z,10
2017-06-14T15:00:32.921Z,10
2017-06-14T15:01:43.139Z,10
2017-06-14T15:02:52.744Z,10
2017-06-14T15:04:02.696Z,10
2017-06-14T15:05:12.613Z,10
2017-06-14T15:06:22.864Z,10
2017-06-14T15:07:32.795Z,10
2017-06-14T15:08:43.679Z,10
2017-06-14T15:09:54.065Z,10
2017-06-14T15:11:04.296Z,10
2017-06-14T15:12:13.913Z,10
2017-06-14T15:13:24.166Z,10
2017-06-14T15:14:34.402Z,5
2017-06-14T15:15:43.716Z,5
2017-06-14T15:16:53.956Z,5
2017-06-14T15:18:03.570Z,5
2017-06-14T15:19:13.476Z,5
2017-06-14T15:20:23.385Z,5
2017-06-14T15:21:33.743Z,5
2017-06-14T15:22:43.651Z,5
2017-06-14T15:23:53.938Z,5
2017-06-14T15:25:04.538Z,5
2017-06-14T15:26:14.777Z,5
2017-06-14T15:27:24.413Z,5
2017-06-14T15:28:34.635Z,5
2017-06-14T15:29:44.237Z,5
2017-06-14T15:30:53.846Z,5
2017-06-14T15:32:03.150Z,5
2017-06-14T15:33:12.778Z,5
2017-06-14T15:34:22.713Z,5
2017-06-14T15:35:32.631Z,5
2017-06-14T15:36:42.611Z,5
2017-06-14T15:37:52.863Z,5
2017-06-14T15:39:02.782Z,5
2017-06-14T15:40:12.698Z,5
2017-06-14T15:41:22.938Z,5
2017-06-14T15:42:32.561Z,5
2017-06-14T15:43:42.502Z,5
2017-06-14T15:44:52.444Z,5
2017-06-14T15:46:02.669Z,5
2017-06-14T15:47:12.291Z,5
2017-06-14T15:48:22.560Z,5
2017-06-14T15:49:32.483Z,5
2017-06-14T15:50:42.406Z,5
2017-06-14T15:51:52.649Z,5
2017-06-14T15:53:02.571Z,5
2017-06-14T15:54:12.637Z,5
2017-06-14T15:55:22.692Z,5
2017-06-14T15:56:33.396Z,5
2017-06-14T15:57:43.044Z,5
2017-06-14T15:58:52.371Z,5
2017-06-14T16:00:02.892Z,5
2017-06-14T16:01:12.797Z,5
2017-06-14T16:02:22.091Z,5
2017-06-14T16:03:31.395Z,5
2017-06-14T16:04:41.631Z,5
2017-06-14T16:05:52.009Z,5
2017-06-14T16:07:02.633Z,5
2017-06-14T16:08:13.242Z,5
2017-06-14T16:09:23.462Z,5
2017-06-14T16:10:33.100Z,5
2017-06-14T16:11:42.803Z,5
2017-06-14T16:12:52.741Z,5
2017-06-14T16:14:02.968Z,5
2017-06-14T16:15:13.196Z,5
2017-06-14T16:16:22.819Z,5
2017-06-14T16:17:33.055Z,5
2017-06-14T16:18:42.973Z,5
2017-06-14T16:19:52.899Z,5
2017-06-14T16:21:02.823Z,5
2017-06-14T16:22:13.217Z,5
2017-06-14T16:23:22.521Z,5
2017-06-14T16:24:32.437Z,5
2017-06-14T16:25:42.671Z,5
2017-06-14T16:26:52.913Z,5
2017-06-14T16:28:02.664Z,5
2017-06-14T16:29:11.957Z,5
2017-06-14T16:30:21.561Z,5
2017-06-14T16:31:31.466Z,5
2017-06-14T16:32:41.387Z,5
2017-06-14T16:33:51.286Z,5
2017-06-14T16:35:01.520Z,5
2017-06-14T16:36:11.118Z,5
2017-06-14T16:37:21.027Z,5
2017-06-14T16:38:31.258Z,5
2017-06-14T16:39:41.631Z,5
2017-06-14T16:40:51.548Z,5
2017-06-14T16:42:01.464Z,5
2017-06-14T16:43:11.405Z,5
2017-06-14T16:44:20.696Z,5
2017-06-14T16:45:30.676Z,5